Time;durP1;ratioP1;P1;durP2;ratioP2;P2;SDS_P1;SDS_P2;PMS_P1;PMS_P2;Temp;Humidity;BMP_temperature;BMP_pressure;BME280_temperature;BME280_humidity;BME280_pressure;Samples;Min_cycle;Max_cycle;Signal;HPM_P1;HPM_P2
2021/05/16 00:02:21;;;;;;;12.15;2.55;;;;;;;12.73;83.16;98911.72;4996618;28;20472;-96
2021/05/16 00:04:47;;;;;;;12.77;3.03;;;;;;;12.67;82.40;98906.09;4996030;28;20038;-96
2021/05/16 00:07:12;;;;;;;11.70;2.33;;;;;;;12.60;82.75;98912.97;4996225;28;20027;-96
2021/05/16 00:09:38;;;;;;;10.05;2.53;;;;;;;12.55;82.07;98898.59;4995742;28;20023;-96
2021/05/16 00:12:05;;;;;;;10.23;2.88;;;;;;;12.57;82.61;98905.34;4996544;28;20022;-96
2021/05/16 00:14:31;;;;;;;18.23;3.63;;;;;;;12.54;81.98;98910.09;4996394;28;20026;-96
2021/05/16 00:16:57;;;;;;;13.90;2.83;;;;;;;12.54;82.06;98912.72;4996080;28;20038;-96
2021/05/16 00:19:22;;;;;;;12.65;2.83;;;;;;;12.43;81.96;98900.66;4996118;28;20034;-96
2021/05/16 00:21:48;;;;;;;10.57;2.63;;;;;;;12.35;81.54;98904.06;4996377;28;20034;-96
2021/05/16 00:24:14;;;;;;;15.63;2.95;;;;;;;12.27;82.28;98902.19;4995787;28;20057;-95
2021/05/16 00:26:40;;;;;;;15.70;3.33;;;;;;;12.28;82.47;98903.84;4995780;28;20035;-96
2021/05/16 00:29:05;;;;;;;14.15;3.03;;;;;;;12.28;82.32;98906.47;4995462;28;20030;-95
2021/05/16 00:31:30;;;;;;;8.43;2.20;;;;;;;12.28;82.25;98905.63;4995340;28;20033;-95
2021/05/16 00:33:56;;;;;;;14.73;3.17;;;;;;;12.22;82.39;98901.81;4995367;28;20054;-96
2021/05/16 00:36:23;;;;;;;11.45;2.30;;;;;;;12.22;82.81;98900.97;4995418;28;20022;-96
2021/05/16 00:38:48;;;;;;;13.23;3.17;;;;;;;12.23;83.05;98900.81;4995296;28;20027;-96
2021/05/16 00:41:14;;;;;;;16.13;3.03;;;;;;;12.28;83.11;98890.69;4995154;28;20022;-96
2021/05/16 00:43:40;;;;;;;17.65;3.72;;;;;;;12.29;82.12;98894.94;4995329;28;20484;-96
2021/05/16 00:46:09;;;;;;;14.68;2.92;;;;;;;12.17;82.80;98890.09;4995237;28;20058;-96
2021/05/16 00:48:35;;;;;;;12.95;2.67;;;;;;;12.20;83.25;98889.78;4995624;28;20396;-96
2021/05/16 00:51:01;;;;;;;10.57;2.20;;;;;;;12.14;82.06;98893.84;4995418;28;20026;-96
2021/05/16 00:53:26;;;;;;;10.13;2.35;;;;;;;12.10;81.59;98885.44;4995096;28;20053;-96
2021/05/16 00:55:52;;;;;;;7.97;2.67;;;;;;;11.99;82.63;98887.47;4995087;28;20057;-96
2021/05/16 00:58:17;;;;;;;15.77;2.50;;;;;;;11.90;83.58;98884.75;4995270;28;20026;-96
2021/05/16 01:00:43;;;;;;;8.98;2.72;;;;;;;12.00;83.11;98883.84;4995096;28;20042;-96
2021/05/16 01:03:09;;;;;;;15.98;3.47;;;;;;;12.17;82.82;98882.19;4995057;28;20044;-96
2021/05/16 01:05:39;;;;;;;16.92;3.10;;;;;;;12.25;83.08;98883.09;4995316;28;20022;-96
2021/05/16 01:08:05;;;;;;;18.00;3.65;;;;;;;12.30;83.13;98888.72;4994915;28;20033;-96
2021/05/16 01:10:31;;;;;;;12.07;2.47;;;;;;;12.33;82.98;98894.66;4995313;28;20101;-96
2021/05/16 01:12:57;;;;;;;22.10;4.25;;;;;;;12.27;82.88;98886.38;4994942;28;20120;-96
2021/05/16 01:15:25;;;;;;;10.30;2.55;;;;;;;12.33;82.67;98884.13;4994683;28;20033;-96
2021/05/16 01:17:51;;;;;;;14.30;3.38;;;;;;;12.30;83.22;98880.84;5003410;28;20058;-96
2021/05/16 01:20:19;;;;;;;15.13;3.78;;;;;;;12.36;82.99;98878.56;5005077;28;20393;-96
2021/05/16 01:22:54;;;;;;;19.67;4.07;;;;;;;12.38;83.15;98879.22;5000151;28;20026;-96
2021/05/16 01:25:20;;;;;;;12.60;2.85;;;;;;;12.35;82.29;98876.91;4995463;28;20109;-96
2021/05/16 01:27:46;;;;;;;13.38;2.60;;;;;;;12.30;82.57;98875.56;4994888;28;20030;-96
2021/05/16 01:30:12;;;;;;;11.23;2.60;;;;;;;12.24;81.58;98864.81;4994789;28;20026;-96
2021/05/16 01:32:37;;;;;;;9.60;2.47;;;;;;;12.12;82.24;98868.66;4994248;28;20027;-95
2021/05/16 01:35:03;;;;;;;15.25;2.45;;;;;;;12.02;81.41;98866.09;4994215;28;20109;-95
2021/05/16 01:37:29;;;;;;;12.48;2.53;;;;;;;12.01;82.24;98872.38;4994668;28;20316;-96
2021/05/16 01:39:54;;;;;;;6.68;1.80;;;;;;;11.97;81.45;98863.13;4994679;28;20502;-96
2021/05/16 01:42:22;;;;;;;7.00;2.35;;;;;;;11.93;81.96;98862.59;4994614;28;20027;-96
2021/05/16 01:44:48;;;;;;;8.60;2.60;;;;;;;11.85;81.03;98865.94;4994633;28;20018;-96
2021/05/16 01:47:13;;;;;;;9.60;2.60;;;;;;;11.79;82.74;98857.81;4994846;28;20038;-96
2021/05/16 01:49:46;;;;;;;13.48;2.58;;;;;;;11.79;82.35;98855.19;4994279;28;20027;-96
2021/05/16 01:52:12;;;;;;;11.55;1.60;;;;;;;11.76;82.15;98855.50;4994195;28;20085;-96
2021/05/16 01:54:37;;;;;;;11.10;2.38;;;;;;;11.70;81.93;98855.09;4999567;28;20033;-96
2021/05/16 01:57:04;;;;;;;8.98;1.80;;;;;;;11.75;82.33;98854.69;4995788;28;20037;-95
2021/05/16 01:59:31;;;;;;;11.95;2.50;;;;;;;11.65;81.76;98853.88;5012305;28;20035;-96
2021/05/16 02:01:59;;;;;;;20.00;3.47;;;;;;;11.57;83.00;98845.94;5013728;28;20010;-96
2021/05/16 02:04:28;;;;;;;8.02;2.03;;;;;;;11.62;82.62;98848.94;5017302;28;20018;-96
2021/05/16 02:06:57;;;;;;;9.70;2.08;;;;;;;11.59;81.92;98851.84;5017032;28;20011;-96
2021/05/16 02:09:24;;;;;;;7.40;1.73;;;;;;;11.58;82.47;98842.34;5001002;28;20043;-96
2021/05/16 02:11:49;;;;;;;9.20;2.22;;;;;;;11.54;81.51;98841.81;5018423;28;20015;-96
2021/05/16 02:14:24;;;;;;;9.27;2.33;;;;;;;11.55;83.04;98842.63;5018700;28;20019;-96
2021/05/16 02:16:49;;;;;;;9.60;2.10;;;;;;;11.60;82.67;98843.84;5018402;28;20057;-96
2021/05/16 02:19:14;;;;;;;13.07;2.33;;;;;;;11.62;83.13;98841.06;5018733;28;20041;-96
2021/05/16 02:21:41;;;;;;;12.63;2.53;;;;;;;11.61;82.81;98842.03;5018402;28;20014;-96
2021/05/16 02:24:07;;;;;;;11.98;2.47;;;;;;;11.65;83.38;98838.97;5018392;28;20026;-96
2021/05/16 02:26:32;;;;;;;11.73;2.22;;;;;;;11.76;83.68;98845.78;5018178;28;20015;-96
2021/05/16 02:28:58;;;;;;;14.50;3.20;;;;;;;11.82;82.75;98845.19;5018350;28;20022;-96
2021/05/16 02:31:23;;;;;;;12.32;2.97;;;;;;;11.77;83.62;98836.09;5002944;28;20006;-96
2021/05/16 02:33:49;;;;;;;13.63;3.38;;;;;;;11.66;82.54;98839.78;5022145;28;20018;-96
2021/05/16 02:36:14;;;;;;;7.32;2.35;;;;;;;11.71;83.27;98838.38;5022274;28;20078;-96
2021/05/16 02:38:39;;;;;;;10.48;2.30;;;;;;;11.67;83.18;98830.91;5021975;28;20022;-96
2021/05/16 02:41:05;;;;;;;8.15;2.75;;;;;;;11.49;82.55;98837.00;5022113;28;20034;-96
2021/05/16 02:43:30;;;;;;;9.10;1.65;;;;;;;11.54;83.43;98825.22;5022101;28;20010;-96
2021/05/16 02:45:55;;;;;;;10.85;2.13;;;;;;;11.58;83.01;98837.09;5022246;28;20011;-96
2021/05/16 02:48:21;;;;;;;10.73;2.25;;;;;;;11.48;82.10;98832.72;5021974;28;20045;-95
2021/05/16 02:50:47;;;;;;;10.65;2.42;;;;;;;11.43;82.96;98823.59;5022137;28;20010;-96
2021/05/16 02:53:14;;;;;;;10.50;2.13;;;;;;;11.27;83.22;98824.25;5021722;28;20018;-96
2021/05/16 02:55:39;;;;;;;11.23;2.33;;;;;;;11.35;83.40;98826.97;5021972;28;20021;-96
2021/05/16 02:58:04;;;;;;;11.02;2.70;;;;;;;11.21;82.60;98816.97;5021987;28;20022;-96
2021/05/16 03:00:30;;;;;;;10.63;2.25;;;;;;;11.25;83.25;98823.59;5020108;28;20038;-94
2021/05/16 03:02:55;;;;;;;9.25;2.03;;;;;;;11.28;82.93;98820.69;5004956;28;20492;-96
2021/05/16 03:05:21;;;;;;;8.73;2.03;;;;;;;11.29;82.32;98824.94;5002992;28;20030;-96
2021/05/16 03:07:46;;;;;;;7.25;2.10;;;;;;;11.23;82.27;98815.03;5003536;28;20035;-96
2021/05/16 03:10:12;;;;;;;7.28;1.90;;;;;;;11.23;82.73;98813.22;5000486;28;20034;-96
2021/05/16 03:12:37;;;;;;;16.13;2.55;;;;;;;11.14;82.04;98813.28;5003551;28;20090;-96
2021/05/16 03:15:03;;;;;;;5.95;1.80;;;;;;;11.10;81.80;98812.75;5012468;28;20094;-96
2021/05/16 03:17:29;;;;;;;10.13;1.95;;;;;;;11.02;82.74;98802.97;5010004;28;20030;-96
2021/05/16 03:19:54;;;;;;;9.80;2.17;;;;;;;11.04;82.09;98808.91;5009906;28;20027;-96
2021/05/16 03:22:20;;;;;;;15.25;2.53;;;;;;;11.04;83.09;98808.91;5011441;28;20033;-96
2021/05/16 03:24:45;;;;;;;11.15;1.85;;;;;;;11.02;82.58;98805.59;5011457;28;20031;-96
2021/05/16 03:27:10;;;;;;;7.05;1.90;;;;;;;11.00;82.71;98801.47;5009737;28;20026;-96
2021/05/16 03:29:36;;;;;;;8.13;1.98;;;;;;;10.98;82.76;98801.63;5007637;28;20026;-96
2021/05/16 03:32:02;;;;;;;13.75;2.22;;;;;;;10.89;82.75;98792.00;5008663;28;20027;-96
2021/05/16 03:34:27;;;;;;;19.10;2.72;;;;;;;10.88;83.39;98795.56;5014686;28;20030;-96
2021/05/16 03:36:53;;;;;;;9.23;1.92;;;;;;;10.85;83.30;98801.13;5006076;28;20023;-96
2021/05/16 03:39:18;;;;;;;10.60;2.17;;;;;;;10.83;83.41;98803.06;5000844;28;20058;-96
2021/05/16 03:41:43;;;;;;;8.90;2.10;;;;;;;10.78;83.86;98800.91;5001775;28;20022;-95
2021/05/16 03:44:09;;;;;;;13.05;2.72;;;;;;;10.84;84.95;98796.84;4998879;28;20081;-96
2021/05/16 03:46:35;;;;;;;20.45;2.40;;;;;;;10.78;84.31;98794.78;4997366;28;20033;-94
2021/05/16 03:49:01;;;;;;;15.35;2.90;;;;;;;10.71;85.58;98792.75;4997254;28;20491;-96
2021/05/16 03:51:26;;;;;;;13.02;3.42;;;;;;;10.63;86.15;98795.28;4996962;28;20030;-96
2021/05/16 03:53:52;;;;;;;17.52;3.80;;;;;;;10.73;86.74;98800.50;4996859;28;20457;-95
2021/05/16 03:56:17;;;;;;;19.20;3.28;;;;;;;10.90;86.46;98791.03;4997349;28;20022;-96
2021/05/16 03:58:43;;;;;;;16.58;2.10;;;;;;;10.92;86.66;98791.72;4996981;28;20034;-95
2021/05/16 04:01:08;;;;;;;17.02;2.42;;;;;;;11.00;85.96;98791.81;4996754;28;20469;-95
2021/05/16 04:03:33;;;;;;;13.00;2.65;;;;;;;11.10;85.94;98794.38;4996581;28;20030;-96
2021/05/16 04:05:59;;;;;;;12.57;2.80;;;;;;;11.08;86.28;98789.25;4996018;28;20041;-96
2021/05/16 04:08:24;;;;;;;21.05;2.78;;;;;;;11.14;85.78;98782.59;4996191;28;20045;-96
2021/05/16 04:10:50;;;;;;;15.30;2.83;;;;;;;11.10;85.66;98789.94;4995696;28;20440;-96
2021/05/16 04:13:15;;;;;;;16.20;4.38;;;;;;;11.11;85.97;98783.69;4995611;28;20029;-96
2021/05/16 04:15:40;;;;;;;12.48;2.13;;;;;;;11.16;86.05;98785.91;4978266;28;20031;-96
2021/05/16 04:18:07;;;;;;;14.80;3.25;;;;;;;11.15;85.39;98776.34;4995593;28;20066;-96
2021/05/16 04:20:32;;;;;;;9.25;1.95;;;;;;;11.12;85.76;98784.53;4995541;28;20072;-96
2021/05/16 04:22:59;;;;;;;11.90;3.03;;;;;;;11.22;84.47;98781.88;4995973;28;20101;-96
2021/05/16 04:25:25;;;;;;;13.20;2.60;;;;;;;10.95;84.02;98790.59;4995830;28;20029;-96
2021/05/16 04:27:50;;;;;;;16.77;3.30;;;;;;;11.08;83.98;98785.81;4995549;28;20388;-96
2021/05/16 04:30:16;;;;;;;17.42;2.88;;;;;;;11.09;84.65;98790.09;4978035;28;20034;-96
2021/05/16 04:32:41;;;;;;;15.75;3.20;;;;;;;11.11;84.49;98788.94;4995101;28;20058;-95
2021/05/16 04:35:07;;;;;;;22.52;2.55;;;;;;;11.22;84.57;98779.22;4994540;28;20037;-95
2021/05/16 04:37:33;;;;;;;11.02;2.50;;;;;;;11.30;84.21;98785.38;4994143;28;20062;-95
2021/05/16 04:39:58;;;;;;;14.02;2.67;;;;;;;11.21;84.60;98767.06;5077428;23;20046;-96
2021/05/16 04:42:24;;;;;;;15.00;3.30;;;;;;;11.15;84.17;98757.16;5107521;23;20096;-96
2021/05/16 04:52:35;;;;;;;12.80;2.50;;;;;;;11.54;84.28;98764.75;3671815;23;20313;-96
2021/05/16 04:55:01;;;;;;;23.48;5.15;;;;;;;11.62;84.82;98770.09;5009555;28;20022;-96
2021/05/16 04:57:26;;;;;;;16.10;2.35;;;;;;;11.85;84.22;98783.59;5014394;23;20059;-96
2021/05/16 04:59:53;;;;;;;12.20;1.92;;;;;;;11.95;84.77;98775.63;4994280;28;20042;-96
2021/05/16 05:02:19;;;;;;;14.95;2.97;;;;;;;12.10;83.95;98782.84;4995076;28;20046;-94
2021/05/16 05:04:45;;;;;;;16.70;2.95;;;;;;;12.17;83.86;98769.88;4991153;28;20110;-96
2021/05/16 05:07:11;;;;;;;8.75;1.77;;;;;;;12.17;83.54;98779.59;4975819;28;20059;-95
2021/05/16 05:09:38;;;;;;;7.75;2.13;;;;;;;12.27;83.49;98775.03;4978732;28;20161;-93
2021/05/16 05:12:04;;;;;;;13.15;2.83;;;;;;;12.35;83.47;98774.28;4974287;28;20023;-95
2021/05/16 05:14:29;;;;;;;11.50;2.65;;;;;;;12.49;83.48;98778.94;4981310;28;20034;-96
2021/05/16 05:16:56;;;;;;;8.68;1.98;;;;;;;12.58;83.06;98771.91;4976088;28;20424;-96
2021/05/16 05:19:21;;;;;;;16.80;2.58;;;;;;;12.66;82.26;98772.78;4976207;28;20113;-96
2021/05/16 05:21:47;;;;;;;20.90;3.45;;;;;;;12.75;81.17;98770.19;4979608;28;20026;-96
2021/05/16 05:24:12;;;;;;;14.48;3.05;;;;;;;12.78;82.02;98772.50;4971902;28;20086;-95
2021/05/16 05:26:38;;;;;;;8.98;2.10;;;;;;;12.84;81.40;98767.44;4970315;28;20489;-96
2021/05/16 05:29:03;;;;;;;12.82;2.17;;;;;;;12.83;82.20;98771.03;4961351;28;20058;-96
2021/05/16 05:31:29;;;;;;;12.93;2.42;;;;;;;12.89;81.96;98765.16;4959059;28;20110;-95
2021/05/16 05:33:54;;;;;;;7.28;1.80;;;;;;;12.99;81.79;98765.00;4956150;29;20058;-96
2021/05/16 05:36:20;;;;;;;9.45;2.35;;;;;;;13.01;82.50;98767.47;4965346;28;20030;-96
2021/05/16 05:38:45;;;;;;;7.18;1.90;;;;;;;13.07;82.04;98765.03;4959494;29;20043;-92
2021/05/16 05:41:11;;;;;;;9.93;2.20;;;;;;;13.19;81.65;98765.56;4958970;28;20062;-96
2021/05/16 05:43:36;;;;;;;13.65;2.58;;;;;;;13.29;81.04;98768.06;4976006;28;20504;-96
2021/05/16 05:46:01;;;;;;;12.70;3.03;;;;;;;13.39;81.21;98771.41;4961092;28;20059;-96
2021/05/16 05:48:27;;;;;;;11.45;2.05;;;;;;;13.46;80.62;98767.09;4964952;28;20046;-96
2021/05/16 05:50:52;;;;;;;10.27;2.35;;;;;;;13.46;79.42;98756.56;4991744;28;20055;-96
2021/05/16 05:53:19;;;;;;;9.95;2.42;;;;;;;13.48;78.91;98766.94;4991714;28;20022;-96
2021/05/16 05:55:44;;;;;;;9.35;1.85;;;;;;;13.54;79.73;98768.94;4968012;28;20031;-96
2021/05/16 05:58:09;;;;;;;8.63;2.15;;;;;;;13.68;78.92;98770.09;4967167;28;20027;-96
2021/05/16 06:00:35;;;;;;;13.85;2.92;;;;;;;13.72;78.81;98768.78;4977334;28;20053;-96
2021/05/16 06:03:00;;;;;;;11.27;1.80;;;;;;;13.81;78.90;98767.78;4977820;28;20022;-95
2021/05/16 06:05:27;;;;;;;13.55;1.75;;;;;;;13.85;78.11;98766.47;4958452;28;20023;-96
2021/05/16 06:07:54;;;;;;;12.82;2.78;;;;;;;13.91;78.54;98758.91;4956797;28;20122;-95
2021/05/16 06:10:20;;;;;;;7.32;1.67;;;;;;;14.00;79.00;98764.00;4955813;28;20122;-95
2021/05/16 06:12:45;;;;;;;12.75;3.28;;;;;;;13.99;78.03;98764.97;4971810;28;20073;-96
2021/05/16 06:15:11;;;;;;;10.27;2.47;;;;;;;14.09;79.89;98763.00;4974607;28;20019;-95
2021/05/16 06:17:37;;;;;;;10.38;2.60;;;;;;;14.23;79.75;98758.84;4974945;28;20101;-96
2021/05/16 06:20:03;;;;;;;15.43;2.47;;;;;;;14.25;78.22;98756.84;4974448;28;20131;-96
2021/05/16 06:22:29;;;;;;;8.02;1.45;;;;;;;14.48;77.98;98761.44;4956414;28;20020;-96
2021/05/16 06:24:54;;;;;;;12.50;2.38;;;;;;;14.54;76.83;98755.47;4955384;29;20019;-95
2021/05/16 06:27:19;;;;;;;11.65;2.42;;;;;;;14.53;77.01;98760.91;4957100;28;20035;-95
2021/05/16 06:29:45;;;;;;;9.15;1.92;;;;;;;14.65;77.94;98759.59;4955313;29;20086;-96
2021/05/16 06:32:11;;;;;;;12.90;2.33;;;;;;;14.75;76.94;98752.31;4955466;28;20110;-96
2021/05/16 06:34:37;;;;;;;7.35;1.70;;;;;;;14.79;77.30;98756.25;4960686;29;20043;-96
2021/05/16 06:37:03;;;;;;;10.57;2.22;;;;;;;14.88;75.93;98744.63;4953904;28;20030;-96
2021/05/16 06:39:29;;;;;;;7.07;1.60;;;;;;;14.98;75.84;98752.34;4975315;28;20031;-96
2021/05/16 06:41:54;;;;;;;12.13;2.85;;;;;;;15.08;75.03;98752.94;4975935;28;20062;-96
2021/05/16 06:44:20;;;;;;;7.20;1.70;;;;;;;15.12;75.45;98747.31;4964633;28;20087;-96
2021/05/16 06:46:45;;;;;;;10.23;1.90;;;;;;;15.16;73.16;98749.44;4954960;29;20024;-96
2021/05/16 06:49:10;;;;;;;8.35;2.03;;;;;;;15.36;75.16;98744.50;4963343;28;20023;-96
2021/05/16 06:51:38;;;;;;;17.25;1.92;;;;;;;15.81;73.83;98737.59;4974417;28;20062;-96
2021/05/16 06:54:04;;;;;;;12.63;2.63;;;;;;;16.03;71.82;98745.66;4973577;28;20023;-96
2021/05/16 06:56:30;;;;;;;11.38;2.40;;;;;;;16.07;71.67;98733.72;4975186;28;20041;-96
2021/05/16 06:58:55;;;;;;;6.93;1.55;;;;;;;16.07;70.84;98736.34;4975417;28;20031;-96
2021/05/16 07:01:21;;;;;;;5.97;1.55;;;;;;;16.08;70.66;98738.03;4976942;28;20107;-96
2021/05/16 07:03:46;;;;;;;8.88;1.63;;;;;;;16.19;70.83;98740.22;4957267;29;20031;-95
2021/05/16 07:06:11;;;;;;;7.85;1.45;;;;;;;16.26;69.86;98740.31;4965668;28;20082;-96
2021/05/16 07:08:37;;;;;;;4.20;1.00;;;;;;;16.39;70.88;98729.91;4976941;28;20023;-96
2021/05/16 07:11:03;;;;;;;9.27;1.60;;;;;;;16.38;69.31;98740.69;4977180;28;20041;-96
2021/05/16 07:13:28;;;;;;;9.30;2.15;;;;;;;16.25;70.37;98736.84;4974243;28;20113;-96
2021/05/16 07:15:54;;;;;;;9.65;1.77;;;;;;;16.13;71.35;98732.97;4975418;28;20374;-96
2021/05/16 07:20:55;;;;;;;12.80;1.92;;;;;;;15.73;70.61;98719.13;5549404;23;20250;-96
2021/05/16 07:23:20;;;;;;;6.68;1.65;;;;;;;15.81;69.74;98721.72;5003098;28;20029;-95
2021/05/16 07:25:46;;;;;;;10.30;1.70;;;;;;;15.65;71.23;98738.50;4984083;28;20040;-96
2021/05/16 07:30:47;;;;;;;4.45;1.00;;;;;;;15.44;71.57;98725.97;5090886;23;20050;-96
2021/05/16 07:43:33;;;;;;;10.50;1.65;;;;;;;14.85;74.41;98726.50;6052857;23;21151;-95
2021/05/16 08:01:29;;;;;;;7.97;1.92;;;;;;;15.83;74.54;98730.28;5060052;23;20047;-96
2021/05/16 08:03:55;;;;;;;6.93;1.40;;;;;;;15.83;74.08;98709.13;5210816;23;20122;-96
2021/05/16 08:06:20;;;;;;;6.55;1.00;;;;;;;15.90;73.17;98708.44;5939561;23;20025;-96
2021/05/16 08:13:56;;;;;;;5.43;0.93;;;;;;;15.76;71.59;98729.38;5082163;23;20042;-96
2021/05/16 08:16:21;;;;;;;5.35;1.20;;;;;;;15.78;72.67;98724.72;5010332;28;20053;-96
2021/05/16 08:21:14;;;;;;;4.22;0.98;;;;;;;15.73;72.62;98716.50;4983912;28;20039;-96
2021/05/16 08:23:39;;;;;;;6.97;1.67;;;;;;;15.64;73.41;98709.63;4971424;28;20050;-96
2021/05/16 08:26:05;;;;;;;3.80;0.80;;;;;;;15.71;73.51;98715.81;4970186;29;20066;-96
2021/05/16 08:28:31;;;;;;;7.35;1.13;;;;;;;15.52;73.71;98711.00;4967246;28;20004;-96
2021/05/16 08:30:56;;;;;;;3.47;1.00;;;;;;;15.51;74.41;98696.16;5072289;23;20050;-96
2021/05/16 08:33:22;;;;;;;3.15;0.85;;;;;;;15.70;75.32;98729.22;4995682;28;20026;-96
2021/05/16 08:35:47;;;;;;;9.00;1.23;;;;;;;15.50;75.80;98707.72;4996002;28;20552;-96
2021/05/16 08:38:13;;;;;;;9.85;1.65;;;;;;;15.70;74.58;98710.69;5000188;28;20026;-96
2021/05/16 08:40:39;;;;;;;7.93;1.50;;;;;;;15.60;74.77;98703.00;4996660;28;20052;-96
2021/05/16 08:43:05;;;;;;;5.22;1.20;;;;;;;15.82;75.87;98711.97;5002514;28;20062;-96
2021/05/16 08:45:31;;;;;;;5.55;1.02;;;;;;;15.84;74.29;98694.09;4996592;28;20037;-96
2021/05/16 08:48:01;;;;;;;5.80;1.60;;;;;;;15.96;74.53;98707.69;5005116;28;20041;-96
2021/05/16 08:50:28;;;;;;;5.70;1.17;;;;;;;16.08;76.93;98708.91;5000813;28;20034;-96
2021/05/16 08:52:54;;;;;;;6.95;1.73;;;;;;;16.67;74.60;98710.72;5002896;28;20034;-96
2021/05/16 08:55:20;;;;;;;5.68;1.17;;;;;;;17.34;73.55;98716.78;5000935;28;20026;-96
2021/05/16 08:57:45;;;;;;;6.38;1.40;;;;;;;17.28;70.79;98713.06;4997383;28;20412;-96
2021/05/16 09:00:23;;;;;;;4.20;1.45;;;;;;;17.29;70.09;98698.78;4996175;28;20030;-96
2021/05/16 09:03:09;;;;;;;3.85;0.82;;;;;;;17.41;69.76;98704.41;4996284;28;20033;-96
2021/05/16 09:05:38;;;;;;;6.22;1.40;;;;;;;17.88;68.47;98713.59;5033704;23;20046;-96
2021/05/16 09:08:12;;;;;;;4.97;0.90;;;;;;;17.91;67.08;98701.75;5001903;28;20065;-96
2021/05/16 09:10:43;;;;;;;4.93;0.98;;;;;;;18.86;65.08;98702.09;4996053;28;20054;-96
2021/05/16 09:13:20;;;;;;;8.48;1.67;;;;;;;19.26;62.88;98695.03;5005396;28;20488;-96
2021/05/16 09:16:04;;;;;;;6.47;1.17;;;;;;;19.99;61.37;98687.09;4995333;28;20091;-96
2021/05/16 09:18:42;;;;;;;8.88;1.58;;;;;;;20.12;59.08;98688.09;4995192;28;20484;-96
2021/05/16 09:21:23;;;;;;;5.45;1.20;;;;;;;20.35;56.11;98691.09;4992549;28;20034;-96
2021/05/16 09:24:11;;;;;;;8.57;1.40;;;;;;;19.68;58.51;98689.53;4999072;28;20381;-95
2021/05/16 09:26:50;;;;;;;5.75;1.70;;;;;;;19.19;61.00;98680.91;5022052;23;20113;-96
2021/05/16 09:29:28;;;;;;;5.35;1.33;;;;;;;20.18;61.18;98681.94;5011913;28;20014;-96
2021/05/16 09:31:56;;;;;;;10.80;2.55;;;;;;;19.93;58.84;98679.13;4974337;28;20061;-96
2021/05/16 09:34:21;;;;;;;8.15;2.42;;;;;;;19.67;59.52;98661.28;4980608;28;20030;-96
2021/05/16 09:36:48;;;;;;;7.82;1.58;;;;;;;19.84;59.60;98675.03;4997486;28;20023;-96
2021/05/16 09:54:58;;;;;;;12.43;2.30;;;;;;;19.25;59.73;98650.81;5889224;23;21105;-94
2021/05/16 09:57:25;;;;;;;11.40;2.35;;;;;;;19.36;56.59;98660.88;5005788;28;20030;-92
2021/05/16 09:59:53;;;;;;;9.75;2.00;;;;;;;18.72;61.05;98667.47;4985890;28;20045;-94
2021/05/16 10:02:24;;;;;;;10.98;1.98;;;;;;;18.42;63.46;98667.75;4969921;28;20054;-94
2021/05/16 10:04:51;;;;;;;11.25;2.17;;;;;;;18.10;66.68;98671.06;4967610;28;20023;-94
2021/05/16 10:07:19;;;;;;;7.78;1.15;;;;;;;18.10;66.89;98671.06;4973227;28;20101;-95
2021/05/16 10:09:45;;;;;;;8.60;1.95;;;;;;;17.91;67.20;98662.78;4972725;28;20092;-94
2021/05/16 10:12:11;;;;;;;10.27;2.13;;;;;;;17.01;70.83;98654.44;4972982;28;20082;-92
2021/05/16 10:14:41;;;;;;;10.35;1.73;;;;;;;16.93;72.16;98649.25;4972156;28;20070;-92
2021/05/16 10:17:08;;;;;;;9.38;2.50;;;;;;;17.09;73.52;98650.03;4972173;28;20046;-92
2021/05/16 10:19:39;;;;;;;9.95;1.80;;;;;;;17.24;71.42;98645.50;4972417;28;20035;-92
2021/05/16 10:22:07;;;;;;;9.48;1.92;;;;;;;17.57;72.48;98634.31;4972752;28;20107;-92
2021/05/16 10:24:40;;;;;;;9.13;1.92;;;;;;;18.19;73.55;98644.13;4971973;28;20070;-91
2021/05/16 10:27:29;;;;;;;8.55;1.92;;;;;;;18.77;69.99;98637.63;4954517;28;20434;-93
2021/05/16 10:30:06;;;;;;;7.47;2.05;;;;;;;18.69;66.41;98635.16;4968606;28;20081;-94
2021/05/16 10:32:34;;;;;;;7.85;1.92;;;;;;;18.86;68.98;98631.13;4977493;28;20019;-95
2021/05/16 10:35:01;;;;;;;8.15;1.73;;;;;;;18.79;68.33;98622.28;4975111;28;20018;-91
2021/05/16 10:37:46;;;;;;;10.48;2.00;;;;;;;19.51;69.43;98627.91;4972593;28;20023;-92
2021/05/16 10:40:11;;;;;;;9.25;2.05;;;;;;;20.17;65.99;98606.50;4972608;28;20030;-92
2021/05/16 10:42:38;;;;;;;6.60;1.88;;;;;;;19.98;64.69;98608.22;4978673;28;20049;-94
2021/05/16 10:45:28;;;;;;;8.02;1.30;;;;;;;19.70;63.88;98610.28;4986608;28;20027;-92
2021/05/16 10:47:56;;;;;;;7.05;1.73;;;;;;;20.48;64.19;98604.13;4973316;28;20066;-87
2021/05/16 10:50:21;;;;;;;5.43;1.70;;;;;;;20.82;63.70;98599.47;4974857;28;20582;-87
2021/05/16 10:53:06;;;;;;;10.90;1.98;;;;;;;20.91;59.75;98593.66;4976824;28;20025;-91
2021/05/16 10:55:40;;;;;;;5.38;0.90;;;;;;;21.43;57.84;98590.00;4975643;28;20026;-92
2021/05/16 10:58:06;;;;;;;6.35;1.45;;;;;;;21.72;56.84;98601.84;4974418;28;20404;-91
2021/05/16 11:00:34;;;;;;;8.45;1.50;;;;;;;21.48;55.31;98592.84;4978665;28;20097;-91
2021/05/16 11:03:02;;;;;;;7.93;1.45;;;;;;;20.53;58.61;98604.31;4977718;28;20110;-92
2021/05/16 11:05:40;;;;;;;8.13;1.52;;;;;;;19.22;61.71;98627.31;4976192;28;20102;-93
2021/05/16 11:08:07;;;;;;;5.28;0.90;;;;;;;17.74;68.08;98616.28;4979640;28;20031;-90
2021/05/16 11:10:32;;;;;;;7.75;1.17;;;;;;;18.33;66.57;98615.00;4968843;28;20034;-90
2021/05/16 11:13:14;;;;;;;6.53;1.90;;;;;;;18.63;67.15;98611.00;4976620;28;20031;-90
2021/05/16 11:15:50;;;;;;;6.43;1.27;;;;;;;18.68;70.28;98599.78;4974133;28;20118;-84
2021/05/16 11:18:17;;;;;;;7.70;1.40;;;;;;;19.16;67.66;98599.66;4974648;28;20050;-85
2021/05/16 11:20:53;;;;;;;11.55;2.20;;;;;;;19.40;67.08;98587.59;4974848;28;20053;-84
2021/05/16 11:23:29;;;;;;;7.38;1.35;;;;;;;19.65;68.11;98597.59;4974875;28;20381;-84
2021/05/16 11:26:02;;;;;;;2.22;0.40;;;;;;;19.67;60.44;98592.03;4974334;28;20027;-84
2021/05/16 11:28:30;;;;;;;2.70;0.93;;;;;;;19.67;62.85;98592.88;4974471;28;20429;-85
2021/05/16 11:30:56;;;;;;;3.03;0.73;;;;;;;19.69;60.86;98588.19;4975159;28;20089;-85
2021/05/16 11:33:29;;;;;;;0.90;0.20;;;;;;;19.66;58.88;98588.56;4974489;28;20058;-85
2021/05/16 11:35:55;;;;;;;1.45;0.30;;;;;;;19.23;59.44;98589.00;4974721;28;20037;-84
2021/05/16 11:38:28;;;;;;;3.45;0.60;;;;;;;19.39;58.43;98596.59;4974661;28;20038;-84
2021/05/16 11:40:54;;;;;;;6.60;0.70;;;;;;;19.12;59.49;98606.41;4974838;28;20493;-85
2021/05/16 11:43:28;;;;;;;8.70;0.93;;;;;;;18.78;59.72;98594.06;4977969;28;20026;-84
2021/05/16 11:45:55;;;;;;;6.18;1.08;;;;;;;18.69;61.20;98592.63;4971495;28;20037;-85
2021/05/16 11:48:35;;;;;;;3.10;0.80;;;;;;;18.83;61.99;98583.66;4974099;28;20034;-85
2021/05/16 11:51:10;;;;;;;5.15;1.08;;;;;;;19.07;62.94;98590.22;4974636;28;20038;-85
2021/05/16 11:53:36;;;;;;;3.83;0.80;;;;;;;19.07;59.56;98576.13;4974548;28;20037;-85
2021/05/16 11:56:09;;;;;;;6.18;1.52;;;;;;;19.61;59.95;98583.06;4974695;28;20034;-85
2021/05/16 11:58:37;;;;;;;3.70;0.82;;;;;;;19.70;58.26;98584.47;4973870;28;20110;-86
2021/05/16 12:01:09;;;;;;;4.20;0.75;;;;;;;19.92;56.20;98570.94;4974097;28;20118;-86
2021/05/16 12:03:34;;;;;;;3.65;0.82;;;;;;;19.86;57.96;98566.44;4973048;28;20107;-86
2021/05/16 12:06:04;;;;;;;8.82;1.45;;;;;;;19.91;59.50;98566.66;4973044;28;20459;-86
2021/05/16 12:08:30;;;;;;;3.15;0.63;;;;;;;18.94;57.88;98569.78;4974968;28;20482;-86
2021/05/16 12:11:09;;;;;;;3.65;0.73;;;;;;;19.02;59.23;98566.91;4974909;28;20118;-84
2021/05/16 12:13:35;;;;;;;4.65;0.63;;;;;;;19.06;59.22;98564.66;4974675;28;20113;-90
2021/05/16 12:16:13;;;;;;;4.55;0.60;;;;;;;18.83;60.66;98559.72;4974568;28;20110;-86
2021/05/16 12:18:40;;;;;;;2.03;0.30;;;;;;;18.55;62.41;98554.56;4974220;28;20080;-88
2021/05/16 12:21:06;;;;;;;3.65;0.47;;;;;;;18.61;63.32;98561.72;4974943;28;20026;-85
2021/05/16 12:23:31;;;;;;;3.03;0.47;;;;;;;19.01;62.90;98567.13;4974704;28;20030;-86
2021/05/16 12:25:57;;;;;;;2.58;0.50;;;;;;;19.20;61.39;98557.50;4974529;28;20117;-86
2021/05/16 12:28:24;;;;;;;1.67;0.20;;;;;;;19.37;58.34;98561.41;4974632;28;20050;-87
2021/05/16 12:30:51;;;;;;;1.23;0.25;;;;;;;19.22;58.02;98561.59;4974697;28;20034;-87
2021/05/16 12:33:17;;;;;;;2.67;0.32;;;;;;;19.83;56.96;98557.03;4973880;28;20031;-85